createdAt,value
2019-02-09T00:01:03.140Z,19.05
2019-02-09T00:03:32.007Z,18.75
2019-02-09T00:06:01.318Z,19.65
2019-02-09T00:08:30.175Z,18.23
2019-02-09T00:10:59.302Z,19.12
2019-02-09T00:13:28.055Z,18.87
2019-02-09T00:15:57.091Z,18.90
2019-02-09T00:18:26.223Z,18.55
2019-02-09T00:20:55.380Z,18.85
2019-02-09T00:23:24.122Z,18.62
2019-02-09T00:25:52.963Z,19.27
2019-02-09T00:28:21.732Z,18.37
2019-02-09T00:30:50.572Z,19.52
2019-02-09T00:33:19.860Z,19.07
2019-02-09T00:35:48.739Z,19.02
2019-02-09T00:38:17.611Z,19.10
2019-02-09T00:40:46.581Z,19.32
2019-02-09T00:43:15.456Z,19.65
2019-02-09T00:45:44.636Z,18.27
2019-02-09T00:48:13.484Z,19.15
2019-02-09T00:50:42.419Z,19.60
2019-02-09T00:53:11.392Z,20.08
2019-02-09T00:55:40.388Z,20.15
2019-02-09T00:58:09.603Z,19.48
2019-02-09T01:00:38.570Z,19.63
2019-02-09T01:03:07.544Z,20.17
2019-02-09T01:05:41.518Z,19.97
2019-02-09T01:08:10.606Z,19.05
2019-02-09T01:10:39.587Z,19.52
2019-02-09T01:13:08.717Z,20.77
2019-02-09T01:15:37.856Z,19.02
2019-02-09T01:18:07.112Z,18.55
2019-02-09T01:20:36.067Z,19.42
2019-02-09T01:23:06.603Z,19.25
2019-02-09T01:25:35.612Z,20.00
2019-02-09T01:28:05.063Z,18.67
2019-02-09T01:30:34.332Z,19.55
2019-02-09T01:33:03.366Z,19.82
2019-02-09T01:35:32.194Z,20.48
2019-02-09T01:38:01.212Z,19.15
2019-02-09T01:40:30.271Z,18.95
2019-02-09T01:42:59.163Z,20.15
2019-02-09T01:45:29.778Z,19.15
2019-02-09T01:47:58.692Z,19.45
2019-02-09T01:50:29.842Z,20.23
2019-02-09T01:52:58.937Z,19.65
2019-02-09T01:55:28.831Z,19.52
2019-02-09T01:57:58.042Z,18.23
2019-02-09T02:00:29.589Z,19.92
2019-02-09T02:02:59.492Z,19.25
2019-02-09T02:05:28.521Z,19.70
2019-02-09T02:07:57.738Z,19.60
2019-02-09T02:10:29.552Z,18.00
2019-02-09T02:12:59.231Z,19.60
2019-02-09T02:15:28.483Z,18.70
2019-02-09T02:17:57.831Z,19.67
2019-02-09T02:20:27.663Z,19.52
2019-02-09T02:22:56.640Z,18.98
2019-02-09T02:25:25.877Z,19.45
2019-02-09T02:27:55.046Z,19.92
2019-02-09T02:30:25.986Z,19.77
2019-02-09T02:32:54.952Z,19.40
2019-02-09T02:35:24.187Z,20.37
2019-02-09T02:37:53.632Z,19.87
2019-02-09T02:40:22.882Z,19.92
2019-02-09T02:42:52.109Z,21.15
2019-02-09T02:45:21.593Z,20.57
2019-02-09T02:47:50.990Z,20.65
2019-02-09T02:50:20.607Z,20.45
2019-02-09T02:52:49.821Z,20.50
2019-02-09T02:55:20.700Z,20.68
2019-02-09T02:57:51.383Z,20.08
2019-02-09T03:00:31.894Z,20.32
2019-02-09T03:02:53.499Z,20.80
2019-02-09T03:05:23.542Z,20.88
2019-02-09T03:07:53.310Z,20.02
2019-02-09T03:10:22.588Z,20.17
2019-02-09T03:12:51.661Z,20.72
2019-02-09T03:15:25.751Z,21.50
2019-02-09T03:17:54.811Z,19.90
2019-02-09T03:20:23.790Z,20.40
2019-02-09T03:22:52.693Z,20.02
2019-02-09T03:25:26.128Z,20.43
2019-02-09T03:27:55.371Z,20.12
2019-02-09T03:30:24.835Z,21.23
2019-02-09T03:32:53.775Z,19.75
2019-02-09T03:35:22.971Z,20.40
2019-02-09T03:37:52.155Z,19.95
2019-02-09T03:40:22.250Z,20.30
2019-02-09T03:42:51.472Z,19.57
2019-02-09T03:45:28.390Z,19.80
2019-02-09T03:47:58.000Z,20.70
2019-02-09T03:50:28.976Z,20.97
2019-02-09T03:52:58.053Z,20.75
2019-02-09T03:55:27.403Z,19.23
2019-02-09T03:57:56.981Z,19.50
2019-02-09T04:00:27.803Z,18.37
2019-02-09T04:02:58.466Z,18.98
2019-02-09T04:05:27.910Z,18.95
2019-02-09T04:07:57.480Z,18.98
2019-02-09T04:10:26.660Z,19.55
2019-02-09T04:12:55.811Z,18.98
2019-02-09T04:15:25.461Z,18.73
2019-02-09T04:17:55.048Z,17.27
2019-02-09T04:20:44.830Z,20.15
2019-02-09T04:23:13.731Z,18.85
2019-02-09T04:25:42.798Z,18.82
2019-02-09T04:28:11.798Z,18.50
2019-02-09T04:30:40.912Z,20.32
2019-02-09T04:33:10.248Z,17.80
2019-02-09T04:35:39.498Z,18.00
2019-02-09T04:38:08.508Z,17.85
2019-02-09T04:40:37.685Z,18.98
2019-02-09T04:43:07.755Z,19.30
2019-02-09T04:45:36.696Z,20.48
2019-02-09T04:48:06.137Z,19.20
2019-02-09T04:50:35.061Z,19.80
2019-02-09T04:53:04.503Z,19.82
2019-02-09T04:55:33.337Z,19.37
2019-02-09T04:58:02.251Z,20.10
2019-02-09T05:00:31.560Z,20.17
2019-02-09T05:03:00.475Z,18.70
2019-02-09T05:05:31.217Z,19.60
2019-02-09T05:08:00.381Z,18.30
2019-02-09T05:10:29.314Z,19.15
2019-02-09T05:12:58.498Z,18.92
2019-02-09T05:15:27.378Z,18.60
2019-02-09T05:17:56.346Z,19.77
2019-02-09T05:20:25.574Z,19.80
2019-02-09T05:22:55.191Z,20.12
2019-02-09T05:25:24.487Z,19.27
2019-02-09T05:27:54.226Z,20.40
2019-02-09T05:30:27.109Z,19.70
2019-02-09T05:32:56.588Z,19.65
2019-02-09T05:35:25.972Z,19.87
2019-02-09T05:37:54.853Z,19.35
2019-02-09T05:40:24.687Z,19.30
2019-02-09T05:42:53.723Z,20.08
2019-02-09T05:45:24.538Z,20.55
2019-02-09T05:47:53.733Z,20.50
2019-02-09T05:50:22.815Z,19.50
2019-02-09T05:52:51.739Z,19.98
2019-02-09T05:55:21.124Z,19.82
2019-02-09T05:57:50.508Z,20.00
2019-02-09T06:00:28.892Z,19.77
2019-02-09T06:02:57.927Z,19.98
2019-02-09T06:05:26.910Z,18.82
2019-02-09T06:07:56.087Z,20.95
2019-02-09T06:10:25.060Z,19.40
2019-02-09T06:12:53.991Z,19.62
2019-02-09T06:15:23.080Z,20.35
2019-02-09T06:17:51.908Z,18.60
2019-02-09T06:20:22.840Z,19.50
2019-02-09T06:22:51.622Z,19.55
2019-02-09T06:25:20.931Z,19.05
2019-02-09T06:27:49.889Z,19.32
2019-02-09T06:30:24.034Z,18.67
2019-02-09T06:32:53.302Z,20.00
2019-02-09T06:35:22.444Z,20.00
2019-02-09T06:37:51.489Z,18.90
2019-02-09T06:40:20.446Z,18.45
2019-02-09T06:42:49.405Z,18.73
2019-02-09T06:45:21.155Z,18.82
2019-02-09T06:47:50.071Z,19.07
2019-02-09T06:50:25.059Z,17.57
2019-02-09T06:52:54.079Z,17.25
2019-02-09T06:55:24.202Z,18.60
2019-02-09T06:57:53.152Z,18.12
2019-02-09T07:00:22.300Z,18.07
2019-02-09T07:02:51.196Z,16.80
2019-02-09T07:05:20.325Z,17.30
2019-02-09T07:07:49.336Z,16.80
2019-02-09T07:10:22.816Z,18.10
2019-02-09T07:12:51.844Z,18.70
2019-02-09T07:15:26.494Z,18.60
2019-02-09T07:17:55.736Z,19.10
2019-02-09T07:20:24.966Z,18.60
2019-02-09T07:22:54.401Z,19.07
2019-02-09T07:25:23.604Z,19.70
2019-02-09T07:27:53.033Z,19.23
2019-02-09T07:30:24.232Z,18.73
2019-02-09T07:32:53.510Z,19.77
2019-02-09T07:35:22.391Z,19.97
2019-02-09T07:37:51.672Z,20.70
2019-02-09T07:40:21.598Z,19.07
2019-02-09T07:42:50.517Z,19.93
2019-02-09T07:45:21.471Z,18.80
2019-02-09T07:47:50.595Z,18.50
2019-02-09T07:50:20.692Z,18.60
2019-02-09T07:52:49.582Z,18.90
2019-02-09T07:55:19.226Z,19.30
2019-02-09T07:57:48.417Z,18.50
2019-02-09T08:00:19.974Z,18.73
2019-02-09T08:02:49.815Z,19.53
2019-02-09T08:05:19.092Z,19.10
2019-02-09T08:07:48.188Z,19.73
2019-02-09T08:10:19.319Z,19.30
2019-02-09T08:12:48.705Z,19.20
2019-02-09T08:15:20.402Z,20.03
2019-02-09T08:17:49.443Z,20.10
2019-02-09T08:20:19.470Z,19.00
2019-02-09T08:22:48.471Z,19.37
2019-02-09T08:25:20.289Z,19.10
2019-02-09T08:27:49.737Z,18.70
2019-02-09T08:30:40.796Z,19.03
2019-02-09T08:33:10.909Z,20.03
2019-02-09T08:35:40.465Z,20.00
2019-02-09T08:38:11.112Z,19.90
2019-02-09T08:40:40.191Z,20.23
2019-02-09T08:43:09.770Z,21.03
2019-02-09T08:45:39.050Z,23.10
2019-02-09T08:48:09.462Z,20.63
2019-02-09T08:50:40.891Z,20.37
2019-02-09T08:53:09.835Z,20.50
2019-02-09T08:55:38.719Z,21.50
2019-02-09T08:58:08.322Z,20.07
2019-02-09T09:00:37.987Z,21.03
2019-02-09T09:03:07.037Z,21.23
2019-02-09T09:05:37.911Z,21.90
2019-02-09T09:08:06.989Z,21.70
2019-02-09T09:10:35.891Z,20.70
2019-02-09T09:13:04.962Z,21.97
2019-02-09T09:15:36.864Z,21.20
2019-02-09T09:18:06.415Z,21.20
2019-02-09T09:20:37.122Z,20.93
2019-02-09T09:23:06.361Z,20.90
2019-02-09T09:25:35.767Z,22.10
2019-02-09T09:28:06.203Z,20.67
2019-02-09T09:30:34.998Z,21.40
2019-02-09T09:33:04.478Z,21.80
2019-02-09T09:35:33.477Z,21.93
2019-02-09T09:38:02.443Z,21.60
2019-02-09T09:40:34.720Z,21.53
2019-02-09T09:43:05.740Z,21.60
2019-02-09T09:45:40.725Z,24.40
2019-02-09T09:48:12.058Z,21.60
2019-02-09T09:50:41.082Z,22.53
2019-02-09T09:53:10.559Z,22.80
2019-02-09T09:55:40.081Z,28.10
2019-02-09T09:58:09.217Z,23.13
2019-02-09T10:00:38.054Z,22.30
2019-02-09T10:03:07.066Z,23.10
2019-02-09T10:05:35.971Z,22.30
2019-02-09T10:08:06.580Z,24.80
2019-02-09T10:10:35.787Z,23.37
2019-02-09T10:13:06.812Z,22.90
2019-02-09T10:15:35.760Z,24.20
2019-02-09T10:18:05.543Z,23.13
2019-02-09T10:20:34.400Z,23.70
2019-02-09T10:23:03.521Z,23.27
2019-02-09T10:25:32.477Z,22.50
2019-02-09T10:28:01.451Z,24.00
2019-02-09T10:30:30.407Z,24.27
2019-02-09T10:32:59.952Z,23.27
2019-02-09T10:35:28.932Z,21.97
2019-02-09T10:37:57.840Z,23.50
2019-02-09T10:40:28.799Z,22.57
2019-02-09T10:42:58.587Z,22.83
2019-02-09T10:45:28.831Z,23.30
2019-02-09T10:47:58.071Z,22.83
2019-02-09T10:50:38.733Z,22.77
2019-02-09T10:53:07.955Z,23.20
2019-02-09T10:55:37.378Z,23.50
2019-02-09T10:58:07.652Z,23.47
2019-02-09T11:00:39.884Z,23.33
2019-02-09T11:03:08.897Z,22.73
2019-02-09T11:05:37.951Z,22.97
2019-02-09T11:08:07.417Z,23.43
2019-02-09T11:10:36.451Z,23.30
2019-02-09T11:13:06.390Z,23.10
2019-02-09T11:15:35.307Z,23.03
2019-02-09T11:18:05.944Z,23.10
2019-02-09T11:20:35.007Z,23.30
2019-02-09T11:23:04.878Z,23.30
2019-02-09T11:25:33.997Z,22.43
2019-02-09T11:28:03.274Z,23.00
2019-02-09T11:30:32.550Z,23.60
2019-02-09T11:33:02.604Z,23.33
2019-02-09T11:35:32.339Z,23.63
2019-02-09T11:38:01.344Z,23.60
2019-02-09T11:40:30.336Z,23.50
2019-02-09T11:42:59.531Z,24.10
2019-02-09T11:45:29.835Z,23.07
2019-02-09T11:47:58.897Z,23.13
2019-02-09T11:50:27.850Z,22.83
2019-02-09T11:52:56.795Z,29.00
2019-02-09T11:55:25.786Z,23.90
2019-02-09T11:57:54.636Z,23.80
2019-02-09T12:00:27.738Z,23.27
2019-02-09T12:03:02.773Z,24.17
2019-02-09T12:05:27.541Z,22.97
2019-02-09T12:07:56.567Z,23.60
2019-02-09T12:10:25.789Z,23.80
2019-02-09T12:12:54.951Z,23.97
2019-02-09T12:15:33.735Z,22.87
2019-02-09T12:18:02.686Z,22.50
2019-02-09T12:20:31.835Z,24.00
2019-02-09T12:23:00.716Z,23.77
2019-02-09T12:25:31.995Z,23.37
2019-02-09T12:28:00.851Z,24.00
2019-02-09T12:30:32.416Z,23.83
2019-02-09T12:33:01.731Z,23.57
2019-02-09T12:35:30.696Z,25.10
2019-02-09T12:37:59.587Z,23.90
2019-02-09T12:40:29.851Z,23.80
2019-02-09T12:42:59.310Z,24.40
2019-02-09T12:45:29.003Z,24.57
2019-02-09T12:47:57.887Z,23.10
2019-02-09T12:50:27.178Z,25.20
2019-02-09T12:52:56.457Z,24.00
2019-02-09T12:55:25.493Z,24.63
2019-02-09T12:57:54.449Z,24.83
2019-02-09T13:00:25.650Z,23.93
2019-02-09T13:02:54.983Z,23.40
2019-02-09T13:05:24.279Z,23.63
2019-02-09T13:07:53.264Z,24.37
2019-02-09T13:10:22.476Z,24.17
2019-02-09T13:12:52.127Z,23.87
2019-02-09T13:15:23.734Z,24.30
2019-02-09T13:17:52.807Z,23.30
2019-02-09T13:20:23.291Z,23.27
2019-02-09T13:22:53.236Z,24.10
2019-02-09T13:25:22.402Z,24.10
2019-02-09T13:27:51.465Z,23.63
2019-02-09T13:30:22.947Z,23.40
2019-02-09T13:32:51.913Z,23.70
2019-02-09T13:35:21.130Z,23.80
2019-02-09T13:37:50.019Z,24.07
2019-02-09T13:40:19.718Z,24.30
2019-02-09T13:42:49.027Z,22.87
2019-02-09T13:45:30.061Z,24.20
2019-02-09T13:47:59.280Z,24.27
2019-02-09T13:50:29.554Z,28.87
2019-02-09T13:52:58.516Z,23.70
2019-02-09T13:55:27.965Z,24.73
2019-02-09T13:57:56.848Z,24.80
2019-02-09T14:00:25.923Z,24.13
2019-02-09T14:02:55.409Z,24.60
2019-02-09T14:05:24.454Z,24.67
2019-02-09T14:07:53.614Z,24.17
2019-02-09T14:10:22.720Z,24.20
2019-02-09T14:12:51.738Z,24.03
2019-02-09T14:15:25.555Z,24.47
2019-02-09T14:17:54.523Z,23.60
2019-02-09T14:20:23.513Z,24.63
2019-02-09T14:22:52.661Z,23.90
2019-02-09T14:25:22.208Z,23.77
2019-02-09T14:27:53.575Z,23.47
2019-02-09T14:30:24.344Z,23.30
2019-02-09T14:32:53.608Z,23.00
2019-02-09T14:35:23.385Z,21.40
2019-02-09T14:37:52.856Z,22.73
2019-02-09T14:40:23.948Z,23.20
2019-02-09T14:42:53.122Z,23.00
2019-02-09T14:45:24.073Z,22.27
2019-02-09T14:47:53.052Z,23.63
2019-02-09T14:50:22.226Z,23.60
2019-02-09T14:52:51.174Z,21.17
2019-02-09T14:55:25.555Z,22.63
2019-02-09T14:57:54.565Z,22.65
2019-02-09T15:00:25.798Z,22.50
2019-02-09T15:02:54.944Z,23.10
2019-02-09T15:05:23.981Z,22.93
2019-02-09T15:07:53.012Z,22.30
2019-02-09T15:10:23.705Z,23.13
2019-02-09T15:12:52.679Z,23.10
2019-02-09T15:15:27.624Z,22.60
2019-02-09T15:17:56.500Z,23.60
2019-02-09T15:20:28.191Z,22.90
2019-02-09T15:22:57.195Z,22.30
2019-02-09T15:25:26.108Z,22.40
2019-02-09T15:27:55.367Z,21.17
2019-02-09T15:30:25.793Z,21.50
2019-02-09T15:32:54.821Z,22.73
2019-02-09T15:35:24.107Z,21.63
2019-02-09T15:37:53.462Z,22.30
2019-02-09T15:40:22.559Z,22.23
2019-02-09T15:42:51.419Z,21.60
2019-02-09T15:45:20.725Z,21.37
2019-02-09T15:47:51.879Z,21.70
2019-02-09T15:50:20.909Z,21.80
2019-02-09T15:52:50.312Z,22.10
2019-02-09T15:55:19.860Z,22.37
2019-02-09T15:57:51.475Z,22.07
2019-02-09T16:00:25.361Z,21.63
2019-02-09T16:02:55.451Z,21.70
2019-02-09T16:05:29.092Z,21.40
2019-02-09T16:07:58.139Z,21.57
2019-02-09T16:10:27.247Z,21.40
2019-02-09T16:12:56.059Z,21.90
2019-02-09T16:15:26.479Z,22.20
2019-02-09T16:17:55.777Z,22.87
2019-02-09T16:20:25.573Z,21.90
2019-02-09T16:22:54.831Z,21.40
2019-02-09T16:25:24.112Z,21.23
2019-02-09T16:27:55.105Z,22.00
2019-02-09T16:30:25.483Z,20.90
2019-02-09T16:32:55.428Z,21.10
2019-02-09T16:35:24.950Z,21.40
2019-02-09T16:37:54.083Z,20.60
2019-02-09T16:40:25.279Z,20.50
2019-02-09T16:42:54.122Z,21.17
2019-02-09T16:45:25.671Z,21.53
2019-02-09T16:47:54.614Z,21.00
2019-02-09T16:50:23.748Z,20.17
2019-02-09T16:52:52.629Z,20.20
2019-02-09T16:55:21.865Z,19.90
2019-02-09T16:57:51.611Z,20.20
2019-02-09T17:00:23.556Z,20.47
2019-02-09T17:02:52.319Z,20.60
2019-02-09T17:05:21.344Z,20.90
2019-02-09T17:07:50.847Z,20.37
2019-02-09T17:10:19.996Z,20.60
2019-02-09T17:12:48.990Z,20.10
2019-02-09T17:15:20.088Z,20.23
2019-02-09T17:17:48.996Z,20.27
2019-02-09T17:20:18.115Z,20.23
2019-02-09T17:22:47.160Z,19.53
2019-02-09T17:25:16.662Z,19.50
2019-02-09T17:27:45.639Z,21.60
2019-02-09T17:30:21.084Z,22.73
2019-02-09T17:32:50.054Z,20.20
2019-02-09T17:35:19.452Z,20.83
2019-02-09T17:37:48.629Z,20.80
2019-02-09T17:40:19.634Z,20.00
2019-02-09T17:42:53.275Z,21.50
2019-02-09T17:45:25.459Z,21.27
2019-02-09T17:47:54.447Z,20.70
2019-02-09T17:50:23.535Z,20.90
2019-02-09T17:52:52.693Z,21.20
2019-02-09T17:55:21.927Z,21.37
2019-02-09T17:57:50.835Z,21.50
2019-02-09T18:00:24.212Z,20.80
2019-02-09T18:02:53.062Z,20.70
2019-02-09T18:05:22.039Z,20.63
2019-02-09T18:07:50.920Z,20.00
2019-02-09T18:10:20.130Z,20.07
2019-02-09T18:12:49.160Z,22.10
2019-02-09T18:15:18.302Z,20.80
2019-02-09T18:17:47.125Z,21.33
2019-02-09T18:20:17.305Z,21.23
2019-02-09T18:22:46.578Z,19.57
2019-02-09T18:25:16.887Z,19.97
2019-02-09T18:27:47.459Z,20.63
2019-02-09T18:30:23.070Z,20.63
2019-02-09T18:32:53.333Z,20.53
2019-02-09T18:35:22.251Z,19.70
2019-02-09T18:37:51.192Z,20.10
2019-02-09T18:40:21.467Z,21.23
2019-02-09T18:42:50.518Z,20.60
2019-02-09T18:45:21.840Z,19.80
2019-02-09T18:47:51.324Z,20.50
2019-02-09T18:50:22.678Z,19.70
2019-02-09T18:52:51.730Z,23.10
2019-02-09T18:55:21.991Z,21.13
2019-02-09T18:57:51.673Z,21.30
2019-02-09T19:00:23.506Z,19.60
2019-02-09T19:02:52.690Z,20.33
2019-02-09T19:05:21.767Z,20.10
2019-02-09T19:07:51.060Z,19.90
2019-02-09T19:10:22.072Z,20.37
2019-02-09T19:12:51.139Z,20.17
2019-02-09T19:15:20.532Z,20.00
2019-02-09T19:17:49.474Z,19.90
2019-02-09T19:20:24.006Z,20.73
2019-02-09T19:22:52.945Z,20.17
2019-02-09T19:25:22.201Z,21.43
2019-02-09T19:27:51.148Z,20.33
2019-02-09T19:30:21.067Z,23.70
2019-02-09T19:32:50.615Z,21.70
2019-02-09T19:35:19.670Z,21.23
2019-02-09T19:37:49.048Z,20.67
2019-02-09T19:40:18.359Z,21.80
2019-02-09T19:42:48.016Z,20.47
2019-02-09T19:45:22.261Z,19.80
2019-02-09T19:47:51.286Z,19.80
2019-02-09T19:50:20.537Z,20.40
2019-02-09T19:52:49.800Z,20.53
2019-02-09T19:55:26.867Z,20.40
2019-02-09T19:57:55.981Z,19.93
2019-02-09T20:00:30.602Z,19.60
2019-02-09T20:02:59.874Z,19.20
2019-02-09T20:05:28.831Z,20.00
2019-02-09T20:07:57.683Z,19.77
2019-02-09T20:10:37.402Z,20.03
2019-02-09T20:13:07.298Z,20.50
2019-02-09T20:15:36.551Z,19.90
2019-02-09T20:18:06.386Z,19.10
2019-02-09T20:20:35.459Z,19.60
2019-02-09T20:23:04.680Z,20.47
2019-02-09T20:25:34.979Z,20.90
2019-02-09T20:28:04.118Z,20.27
2019-02-09T20:30:34.534Z,19.43
2019-02-09T20:33:03.888Z,20.07
2019-02-09T20:35:33.010Z,20.20
2019-02-09T20:38:01.968Z,22.17
2019-02-09T20:40:36.414Z,22.30
2019-02-09T20:43:06.354Z,20.80
2019-02-09T20:45:35.420Z,19.83
2019-02-09T20:48:06.044Z,19.03
2019-02-09T20:50:36.045Z,19.53
2019-02-09T20:53:05.890Z,19.50
2019-02-09T20:55:34.863Z,19.50
2019-02-09T20:58:05.797Z,20.10
2019-02-09T21:00:34.799Z,19.70
2019-02-09T21:03:03.862Z,19.50
2019-02-09T21:05:36.524Z,20.50
2019-02-09T21:08:04.728Z,20.07
2019-02-09T21:10:33.727Z,19.70
2019-02-09T21:13:02.712Z,19.53
2019-02-09T21:15:32.461Z,20.33
2019-02-09T21:18:04.346Z,19.60
2019-02-09T21:20:33.289Z,18.97
2019-02-09T21:23:02.150Z,19.00
2019-02-09T21:25:32.617Z,20.60
2019-02-09T21:28:01.650Z,20.80
2019-02-09T21:30:31.073Z,19.63
2019-02-09T21:33:00.432Z,19.70
2019-02-09T21:35:30.578Z,19.60
2019-02-09T21:37:59.512Z,19.70
2019-02-09T21:40:29.175Z,19.57
2019-02-09T21:42:58.515Z,18.90
2019-02-09T21:45:27.848Z,19.23
2019-02-09T21:47:56.928Z,18.90
2019-02-09T21:50:31.341Z,19.17
2019-02-09T21:53:00.447Z,19.57
2019-02-09T21:55:29.584Z,20.20
2019-02-09T21:57:58.582Z,19.27
2019-02-09T22:00:32.663Z,18.33
2019-02-09T22:03:01.570Z,19.40
2019-02-09T22:05:30.746Z,18.40
2019-02-09T22:07:59.805Z,18.83
2019-02-09T22:10:33.058Z,19.30
2019-02-09T22:12:59.528Z,18.93
2019-02-09T22:15:29.094Z,18.57
2019-02-09T22:17:58.395Z,18.53
2019-02-09T22:20:27.411Z,19.67
2019-02-09T22:22:56.470Z,18.97
2019-02-09T22:25:25.571Z,20.03
2019-02-09T22:27:54.559Z,19.57
2019-02-09T22:30:27.900Z,20.40
2019-02-09T22:32:57.526Z,18.90
2019-02-09T22:35:27.283Z,19.77
2019-02-09T22:37:57.429Z,19.73
2019-02-09T22:40:31.059Z,19.77
2019-02-09T22:43:00.067Z,20.00
2019-02-09T22:45:29.103Z,18.50
2019-02-09T22:47:58.517Z,19.43
2019-02-09T22:50:29.700Z,19.13
2019-02-09T22:52:58.851Z,19.33
2019-02-09T22:55:27.845Z,20.00
2019-02-09T22:57:56.855Z,18.97
2019-02-09T23:01:04.490Z,19.30
2019-02-09T23:03:58.853Z,19.73
2019-02-09T23:06:53.963Z,20.57
2019-02-09T23:09:25.307Z,20.67
2019-02-09T23:11:54.345Z,20.60
2019-02-09T23:14:23.321Z,19.50
2019-02-09T23:16:52.342Z,20.23
2019-02-09T23:19:21.459Z,20.70
2019-02-09T23:21:50.313Z,19.53
2019-02-09T23:24:19.248Z,19.10
2019-02-09T23:26:48.515Z,19.90
2019-02-09T23:29:17.287Z,19.87
2019-02-09T23:31:46.066Z,19.57
2019-02-09T23:34:15.137Z,20.40
2019-02-09T23:36:44.059Z,19.20
2019-02-09T23:39:13.092Z,21.67
2019-02-09T23:41:41.976Z,20.03
2019-02-09T23:44:10.843Z,19.47
2019-02-09T23:46:39.677Z,20.77
2019-02-09T23:49:08.566Z,19.30
2019-02-09T23:51:37.601Z,21.23
2019-02-09T23:54:06.623Z,19.50
2019-02-09T23:56:35.516Z,19.10
2019-02-09T23:59:04.290Z,19.63
